Time;durP1;ratioP1;P1;durP2;ratioP2;P2;SDS_P1;SDS_P2;PMS_P1;PMS_P2;Temp;Humidity;BMP_temperature;BMP_pressure;BME280_temperature;BME280_humidity;BME280_pressure;Samples;Min_cycle;Max_cycle;Signal;HPM_P1;HPM_P2
2023/03/23 07:38:49;;;;;;;1.40;0.47;;;11.60;99.90;;;;;;4927790;23;20287;-75
2023/03/23 07:41:15;;;;;;;1.53;0.37;;;11.40;99.90;;;;;;4955928;28;20207;-75
2023/03/23 07:43:42;;;;;;;1.03;0.37;;;11.20;99.90;;;;;;4950837;28;20586;-73
2023/03/23 07:46:09;;;;;;;0.63;0.40;;;11.10;99.90;;;;;;4954506;28;20228;-73
2023/03/23 07:48:36;;;;;;;2.37;0.60;;;11.10;99.90;;;;;;4954872;28;20204;-75
2023/03/23 07:51:02;;;;;;;3.80;0.80;;;11.00;99.90;;;;;;4954460;28;20215;-73
2023/03/23 07:53:29;;;;;;;2.20;0.90;;;11.10;99.90;;;;;;4943402;28;20233;-74
2023/03/23 07:55:58;;;;;;;2.93;0.73;;;11.20;99.90;;;;;;4935465;29;20588;-75
2023/03/23 07:58:26;;;;;;;3.37;0.67;;;11.30;99.90;;;;;;4934641;29;20220;-76
2023/03/23 08:00:53;;;;;;;2.30;0.70;;;11.40;99.90;;;;;;4935039;29;20208;-75
2023/03/23 08:03:20;;;;;;;4.17;0.73;;;11.30;99.90;;;;;;4935511;29;20579;-75
2023/03/23 08:05:47;;;;;;;1.97;0.80;;;11.40;99.90;;;;;;4934914;29;20243;-74
2023/03/23 08:08:14;;;;;;;4.73;0.90;;;11.60;99.90;;;;;;4935680;29;20240;-76
2023/03/23 08:10:41;;;;;;;2.57;0.70;;;11.70;99.90;;;;;;4935186;29;20553;-76
2023/03/23 08:13:09;;;;;;;2.40;0.60;;;11.60;99.90;;;;;;4934356;29;20228;-76
2023/03/23 08:15:37;;;;;;;1.43;0.50;;;11.50;99.90;;;;;;4935335;29;20235;-77
2023/03/23 08:18:05;;;;;;;1.73;0.40;;;11.40;99.90;;;;;;4935127;29;20218;-79
2023/03/23 08:20:32;;;;;;;0.93;0.40;;;11.40;99.90;;;;;;4934456;29;20213;-77
2023/03/23 08:22:59;;;;;;;1.23;0.40;;;11.30;99.90;;;;;;4935057;29;20739;-77
2023/03/23 08:25:27;;;;;;;1.37;0.43;;;11.20;99.90;;;;;;4934708;29;20236;-76
2023/03/23 08:27:54;;;;;;;0.70;0.30;;;11.10;99.90;;;;;;4934788;29;20288;-76
2023/03/23 08:30:24;;;;;;;1.83;0.37;;;11.10;99.90;;;;;;4935251;29;20561;-75
2023/03/23 08:32:51;;;;;;;2.40;0.37;;;11.00;99.90;;;;;;4934934;29;20572;-76
2023/03/23 08:35:19;;;;;;;1.50;0.40;;;10.90;99.90;;;;;;4935022;29;20728;-79
2023/03/23 08:37:50;;;;;;;2.40;0.50;;;10.90;99.90;;;;;;4933938;29;20679;-80
2023/03/23 08:40:19;;;;;;;0.80;0.40;;;11.00;99.90;;;;;;4934643;29;20211;-82
2023/03/23 08:42:48;;;;;;;1.03;0.40;;;11.00;99.90;;;;;;4934310;29;20235;-76
2023/03/23 08:45:17;;;;;;;4.20;0.40;;;11.00;99.90;;;;;;4932064;29;20233;-80
2023/03/23 08:47:53;;;;;;;0.50;0.40;;;10.90;99.90;;;;;;4933081;29;20219;-79
2023/03/23 08:50:24;;;;;;;0.90;0.40;;;11.00;99.90;;;;;;4934256;29;20220;-78
2023/03/23 08:52:52;;;;;;;1.23;0.40;;;10.90;99.90;;;;;;4942505;29;20248;-79
2023/03/23 08:55:20;;;;;;;1.03;0.30;;;11.00;99.90;;;;;;4934435;29;20240;-78
2023/03/23 08:57:47;;;;;;;1.83;0.40;;;11.00;99.90;;;;;;4934040;29;20303;-78
2023/03/23 09:00:17;;;;;;;1.07;0.40;;;11.00;99.90;;;;;;4934427;29;20224;-78
2023/03/23 09:02:48;;;;;;;3.43;0.30;;;11.00;99.90;;;;;;4934309;29;20596;-79
2023/03/23 09:05:15;;;;;;;1.27;0.40;;;11.10;99.90;;;;;;4946482;29;20327;-80
2023/03/23 09:07:45;;;;;;;0.77;0.50;;;11.30;99.90;;;;;;4934078;29;20699;-77
2023/03/23 09:10:13;;;;;;;1.17;0.27;;;11.30;99.90;;;;;;4934271;29;20209;-78
2023/03/23 09:12:41;;;;;;;3.70;0.80;;;11.30;99.90;;;;;;4933875;28;20220;-79
2023/03/23 09:15:09;;;;;;;1.43;0.37;;;11.40;99.90;;;;;;4933866;29;20332;-80
2023/03/23 09:17:37;;;;;;;2.13;0.40;;;11.30;99.90;;;;;;4933988;29;20215;-78
2023/03/23 09:20:11;;;;;;;1.13;0.40;;;11.30;99.90;;;;;;4934432;29;20292;-81
2023/03/23 09:22:39;;;;;;;0.50;0.30;;;11.30;99.90;;;;;;4934049;29;20689;-80
2023/03/23 09:25:07;;;;;;;1.90;0.43;;;11.30;99.90;;;;;;4934092;29;20315;-77
2023/03/23 09:27:34;;;;;;;2.37;0.40;;;11.30;99.90;;;;;;4934287;29;20213;-77
2023/03/23 09:30:01;;;;;;;5.50;0.50;;;11.30;99.90;;;;;;4934203;29;20299;-79
2023/03/23 09:32:28;;;;;;;1.10;0.47;;;11.30;99.90;;;;;;4933865;29;20583;-77
2023/03/23 09:34:56;;;;;;;1.70;0.47;;;11.20;99.90;;;;;;4932963;29;20264;-77
2023/03/23 09:37:24;;;;;;;0.40;0.30;;;11.20;99.90;;;;;;4934221;29;20568;-75
2023/03/23 09:39:51;;;;;;;3.43;0.37;;;11.20;99.90;;;;;;4934811;29;20213;-78
2023/03/23 09:42:44;;;;;;;1.87;0.60;;;11.30;99.90;;;;;;4944689;28;20299;-78
2023/03/23 09:45:20;;;;;;;1.27;0.30;;;11.40;99.90;;;;;;4933428;29;20235;-78
2023/03/23 09:47:58;;;;;;;0.57;0.33;;;11.40;99.90;;;;;;4934304;29;20570;-76
2023/03/23 09:50:32;;;;;;;5.20;0.53;;;11.60;99.90;;;;;;4937548;29;20248;-81
2023/03/23 09:53:03;;;;;;;2.17;0.50;;;11.90;99.90;;;;;;4938056;29;20682;-78
2023/03/23 09:55:30;;;;;;;1.70;0.50;;;12.00;99.90;;;;;;4937921;29;20323;-74
2023/03/23 09:58:00;;;;;;;0.73;0.47;;;12.20;99.90;;;;;;4938527;29;20213;-73
2023/03/23 10:00:36;;;;;;;1.83;0.60;;;12.40;99.90;;;;;;4938517;29;20308;-74
2023/03/23 10:03:07;;;;;;;1.87;0.60;;;12.60;99.90;;;;;;4937056;29;20204;-75
2023/03/23 10:05:36;;;;;;;1.10;0.60;;;12.80;99.90;;;;;;4935442;29;20232;-74
2023/03/23 10:08:12;;;;;;;1.33;0.50;;;13.00;99.90;;;;;;4938426;29;20656;-75
2023/03/23 10:10:48;;;;;;;1.47;0.80;;;13.10;99.90;;;;;;4938269;29;20213;-74
2023/03/23 10:13:23;;;;;;;1.47;0.57;;;13.20;99.90;;;;;;4933975;29;20925;-75
2023/03/23 10:15:51;;;;;;;0.73;0.50;;;13.40;99.90;;;;;;4932142;29;20319;-74
2023/03/23 10:18:25;;;;;;;0.93;0.50;;;13.60;99.90;;;;;;4936755;29;20202;-74
2023/03/23 10:20:55;;;;;;;2.10;0.60;;;13.70;99.90;;;;;;4937188;29;20259;-74
2023/03/23 10:23:41;;;;;;;2.73;0.70;;;13.90;99.90;;;;;;4933989;29;20209;-75
2023/03/23 10:26:13;;;;;;;1.27;0.63;;;14.10;99.90;;;;;;4932467;29;20755;-74
2023/03/23 10:28:44;;;;;;;2.17;0.60;;;14.20;99.90;;;;;;4938035;29;20684;-80
2023/03/23 10:31:14;;;;;;;1.23;0.63;;;14.20;99.90;;;;;;4938519;29;20551;-75
2023/03/23 10:33:44;;;;;;;2.00;0.57;;;14.20;99.90;;;;;;4930859;29;20232;-78
2023/03/23 10:36:14;;;;;;;2.30;0.70;;;14.40;99.90;;;;;;4930269;29;20660;-73
2023/03/23 10:38:46;;;;;;;0.70;0.40;;;14.40;99.90;;;;;;4921065;29;20217;-79
2023/03/23 10:41:15;;;;;;;0.80;0.60;;;14.20;99.90;;;;;;4922353;29;20284;-81
2023/03/23 10:43:43;;;;;;;1.33;0.60;;;14.30;99.90;;;;;;4922519;29;20213;-78
2023/03/23 10:46:22;;;;;;;0.90;0.50;;;14.30;99.90;;;;;;4921131;29;20229;-79
2023/03/23 10:48:51;;;;;;;2.53;0.73;;;14.70;99.90;;;;;;4921528;29;20245;-81
2023/03/23 10:51:29;;;;;;;3.07;0.80;;;14.80;99.90;;;;;;4921434;29;20220;-76
2023/03/23 10:54:01;;;;;;;3.47;0.77;;;14.70;99.90;;;;;;4920104;29;20236;-78
2023/03/23 10:56:29;;;;;;;2.17;0.50;;;14.90;99.90;;;;;;4919921;29;20287;-73
2023/03/23 10:58:56;;;;;;;0.90;0.50;;;15.10;99.90;;;;;;4921086;29;20212;-77
2023/03/23 11:01:31;;;;;;;1.50;0.90;;;15.40;99.90;;;;;;4923353;29;20217;-75
2023/03/23 11:04:00;;;;;;;3.57;0.60;;;15.10;99.90;;;;;;4925520;29;20281;-73
2023/03/23 11:06:29;;;;;;;2.57;0.60;;;15.30;99.90;;;;;;4923262;29;20289;-84
2023/03/23 11:09:01;;;;;;;1.00;0.50;;;15.50;99.90;;;;;;4921536;29;20318;-76
2023/03/23 11:11:29;;;;;;;3.67;0.63;;;15.60;99.90;;;;;;4922542;29;20306;-78
2023/03/23 11:14:01;;;;;;;2.47;0.80;;;15.40;99.90;;;;;;4920123;29;20237;-76
2023/03/23 11:16:30;;;;;;;3.90;0.60;;;15.70;99.90;;;;;;4919462;29;20226;-79
2023/03/23 11:18:58;;;;;;;1.20;0.70;;;15.70;99.90;;;;;;4919358;29;20661;-82
2023/03/23 11:21:27;;;;;;;2.73;0.70;;;15.40;99.90;;;;;;4918812;29;20694;-81
2023/03/23 11:23:57;;;;;;;2.37;0.80;;;15.30;99.90;;;;;;4918833;29;20217;-79
2023/03/23 11:26:28;;;;;;;1.77;0.97;;;15.60;99.90;;;;;;4919326;29;20237;-74
2023/03/23 11:28:58;;;;;;;3.50;0.77;;;15.70;99.90;;;;;;4918851;29;20210;-74
2023/03/23 11:31:29;;;;;;;3.50;0.70;;;15.80;99.90;;;;;;4918881;29;20206;-74
2023/03/23 11:34:00;;;;;;;1.00;0.63;;;16.00;99.90;;;;;;4918402;29;20216;-77
2023/03/23 11:36:32;;;;;;;2.50;0.80;;;16.00;99.90;;;;;;4918728;29;20257;-73
2023/03/23 11:38:59;;;;;;;3.03;0.80;;;15.90;99.90;;;;;;4918198;29;20221;-73
2023/03/23 11:41:33;;;;;;;1.87;0.57;;;16.00;99.90;;;;;;4917772;29;20231;-73
2023/03/23 11:44:08;;;;;;;2.60;0.80;;;16.30;99.90;;;;;;4917728;29;20683;-73
2023/03/23 11:46:41;;;;;;;4.87;0.83;;;16.20;99.90;;;;;;4917923;29;20741;-74
2023/03/23 11:49:15;;;;;;;1.60;0.50;;;15.80;99.90;;;;;;4917690;29;20765;-77
2023/03/23 11:51:46;;;;;;;2.37;0.63;;;15.50;99.90;;;;;;4917726;29;20212;-73
2023/03/23 11:54:18;;;;;;;2.10;0.60;;;15.70;99.90;;;;;;4917405;29;20726;-73
2023/03/23 11:56:47;;;;;;;4.33;1.10;;;15.70;99.90;;;;;;4918008;29;20217;-74
2023/03/23 11:59:17;;;;;;;2.07;0.53;;;15.60;99.90;;;;;;4917779;29;20214;-74
2023/03/23 12:01:56;;;;;;;3.13;0.63;;;15.60;99.90;;;;;;4917620;29;20261;-73
2023/03/23 12:04:38;;;;;;;2.93;0.73;;;15.80;99.90;;;;;;4917272;29;20282;-74
2023/03/23 12:07:18;;;;;;;3.33;1.17;;;15.90;99.90;;;;;;4917362;29;20645;-73
2023/03/23 12:09:53;;;;;;;1.27;0.47;;;15.90;99.90;;;;;;4917528;29;20205;-74
2023/03/23 12:12:29;;;;;;;2.27;0.93;;;15.90;99.90;;;;;;4917370;29;20215;-73
2023/03/23 12:15:05;;;;;;;2.67;0.47;;;16.00;99.90;;;;;;4917461;29;20612;-75
2023/03/23 12:17:42;;;;;;;3.33;0.67;;;16.00;99.90;;;;;;4918835;29;20216;-79
2023/03/23 12:20:28;;;;;;;0.90;0.40;;;15.90;99.90;;;;;;4919412;29;20245;-77
2023/03/23 12:23:15;;;;;;;1.93;0.60;;;15.70;99.90;;;;;;4918576;29;20209;-75
2023/03/23 12:26:00;;;;;;;3.20;0.93;;;15.70;99.90;;;;;;4918359;29;20236;-80
2023/03/23 12:28:38;;;;;;;7.23;1.00;;;15.80;99.90;;;;;;4918276;29;20292;-74
2023/03/23 12:31:12;;;;;;;4.10;0.60;;;15.90;99.90;;;;;;4918381;29;20215;-79
2023/03/23 12:33:49;;;;;;;1.87;0.63;;;15.90;99.90;;;;;;4918628;29;20216;-78
2023/03/23 12:36:25;;;;;;;3.87;0.97;;;15.80;99.90;;;;;;4919451;29;20269;-77
2023/03/23 12:39:09;;;;;;;4.60;0.50;;;16.00;99.90;;;;;;4919082;29;20220;-75
2023/03/23 12:41:42;;;;;;;4.87;1.10;;;15.90;99.90;;;;;;4919273;29;20216;-78
2023/03/23 12:44:14;;;;;;;2.07;0.70;;;15.80;99.90;;;;;;4918063;29;20217;-76
2023/03/23 12:47:00;;;;;;;3.20;0.60;;;16.00;99.90;;;;;;4918268;29;20745;-78
2023/03/23 12:49:32;;;;;;;3.77;0.73;;;16.00;99.90;;;;;;4919363;29;20699;-81
2023/03/23 12:52:04;;;;;;;5.13;0.83;;;16.10;99.90;;;;;;4920046;29;20269;-78
2023/03/23 12:54:36;;;;;;;2.20;0.50;;;16.00;99.90;;;;;;4919008;29;20233;-74
2023/03/23 12:57:08;;;;;;;2.57;0.70;;;15.90;99.90;;;;;;4918575;29;20261;-77
2023/03/23 12:59:43;;;;;;;4.07;0.50;;;16.00;99.90;;;;;;4916779;29;20569;-73
2023/03/23 13:02:17;;;;;;;6.00;0.90;;;16.00;99.90;;;;;;4916819;29;20227;-73
2023/03/23 13:04:48;;;;;;;2.53;1.03;;;16.10;99.90;;;;;;4917892;29;20588;-79
2023/03/23 13:07:21;;;;;;;3.30;0.90;;;16.10;99.90;;;;;;4918998;29;20235;-75
2023/03/23 13:09:56;;;;;;;2.63;1.00;;;16.10;99.90;;;;;;4919420;29;20565;-74
2023/03/23 13:12:25;;;;;;;3.90;1.23;;;16.40;99.90;;;;;;4918169;29;20209;-75
2023/03/23 13:15:01;;;;;;;3.23;1.00;;;16.60;99.90;;;;;;4918190;29;20241;-77
2023/03/23 13:17:38;;;;;;;5.20;0.77;;;16.50;99.90;;;;;;4917194;29;20739;-76
2023/03/23 13:20:31;;;;;;;4.33;1.00;;;16.50;99.90;;;;;;4918856;29;20212;-81
2023/03/23 13:23:05;;;;;;;2.87;0.87;;;16.50;99.90;;;;;;4919692;29;20299;-74
2023/03/23 13:25:56;;;;;;;2.50;0.53;;;16.60;99.90;;;;;;4923267;29;20265;-80
2023/03/23 13:28:26;;;;;;;3.93;1.10;;;16.70;99.90;;;;;;4919396;29;20221;-82
2023/03/23 13:30:59;;;;;;;4.43;1.00;;;16.80;99.90;;;;;;4921508;29;20309;-85
2023/03/23 13:33:29;;;;;;;2.20;0.70;;;16.80;99.90;;;;;;4922571;29;20216;-78
2023/03/23 13:35:56;;;;;;;3.07;0.60;;;16.70;99.90;;;;;;4922369;29;20248;-75
2023/03/23 13:38:25;;;;;;;2.20;0.67;;;16.50;99.90;;;;;;4923220;29;20278;-80
2023/03/23 13:40:54;;;;;;;2.57;0.60;;;16.40;99.90;;;;;;4922057;29;20206;-77
2023/03/23 13:43:29;;;;;;;2.50;0.60;;;16.20;99.90;;;;;;4922048;29;20276;-81
2023/03/23 13:46:13;;;;;;;1.60;0.60;;;16.20;99.90;;;;;;4921927;29;20237;-80
2023/03/23 13:48:47;;;;;;;3.23;0.80;;;16.40;99.90;;;;;;4922894;29;20214;-75
2023/03/23 13:51:34;;;;;;;4.57;1.17;;;16.40;99.90;;;;;;4921994;29;20209;-79
2023/03/23 13:54:20;;;;;;;2.73;0.57;;;16.30;99.90;;;;;;4921740;29;20577;-76
2023/03/23 13:56:54;;;;;;;3.30;0.50;;;16.30;99.90;;;;;;4922212;29;20214;-77
2023/03/23 13:59:35;;;;;;;2.80;0.70;;;16.20;99.90;;;;;;4923798;29;20217;-74
2023/03/23 14:02:38;;;;;;;4.80;0.70;;;16.20;99.90;;;;;;4927476;29;20205;-74
2023/03/23 14:05:33;;;;;;;2.90;0.80;;;16.00;99.90;;;;;;4928239;29;20275;-74
2023/03/23 14:08:03;;;;;;;1.37;0.50;;;15.60;99.90;;;;;;4931061;29;20218;-74
2023/03/23 14:10:35;;;;;;;4.20;0.63;;;15.10;99.90;;;;;;4931587;29;20205;-83
2023/03/23 14:13:04;;;;;;;4.07;0.73;;;14.90;99.90;;;;;;4922542;29;20293;-74
2023/03/23 14:15:38;;;;;;;3.87;0.83;;;14.80;99.90;;;;;;4922028;29;20257;-74
2023/03/23 14:18:06;;;;;;;5.47;0.80;;;14.80;99.90;;;;;;4929028;29;20210;-88
2023/03/23 14:20:37;;;;;;;6.13;1.50;;;14.70;99.90;;;;;;4924588;29;20300;-89
2023/03/23 14:23:04;;;;;;;2.93;0.93;;;14.80;99.90;;;;;;4922884;29;20209;-88
2023/03/23 14:25:32;;;;;;;4.40;0.60;;;14.70;99.90;;;;;;4920752;29;20312;-86
2023/03/23 14:27:59;;;;;;;1.50;0.70;;;14.70;99.90;;;;;;4922986;29;20216;-77
2023/03/23 14:30:28;;;;;;;7.70;0.90;;;14.90;99.90;;;;;;4921499;29;20214;-75
2023/03/23 14:33:05;;;;;;;2.67;0.60;;;14.80;99.90;;;;;;4920082;29;20665;-85
2023/03/23 14:35:38;;;;;;;2.87;0.70;;;14.90;99.90;;;;;;4919200;29;20241;-87
2023/03/23 14:38:05;;;;;;;3.53;0.80;;;15.10;99.90;;;;;;4919822;29;20221;-86
2023/03/23 14:40:34;;;;;;;3.50;0.83;;;15.30;99.90;;;;;;4920405;29;20210;-87
2023/03/23 14:43:02;;;;;;;3.07;0.77;;;15.40;99.90;;;;;;4920369;29;20273;-82
2023/03/23 14:45:29;;;;;;;3.57;0.90;;;15.50;99.90;;;;;;4919685;29;20237;-81
2023/03/23 14:47:59;;;;;;;4.97;1.30;;;15.70;99.90;;;;;;4920568;29;20213;-79
2023/03/23 14:50:29;;;;;;;2.03;0.70;;;15.40;99.90;;;;;;4920138;29;20296;-86
2023/03/23 14:53:10;;;;;;;7.17;1.93;;;15.10;99.90;;;;;;4919657;29;20213;-86
2023/03/23 14:55:37;;;;;;;3.53;0.70;;;15.10;99.90;;;;;;4919630;29;20689;-83
2023/03/23 14:58:09;;;;;;;3.40;0.70;;;15.20;99.90;;;;;;4919655;29;20213;-85
2023/03/23 15:00:39;;;;;;;2.87;0.43;;;15.40;99.90;;;;;;4920213;29;20210;-77
2023/03/23 15:03:08;;;;;;;1.77;0.67;;;15.60;99.90;;;;;;4920121;29;20210;-85
2023/03/23 15:05:39;;;;;;;1.63;0.80;;;15.60;99.90;;;;;;4919957;29;20625;-80
2023/03/23 15:08:12;;;;;;;1.43;0.57;;;15.80;99.90;;;;;;4919482;29;20218;-73
2023/03/23 15:10:40;;;;;;;1.50;0.60;;;15.90;99.90;;;;;;4919338;29;20214;-81
2023/03/23 15:13:12;;;;;;;2.70;0.80;;;16.10;99.90;;;;;;4919961;29;20217;-81
2023/03/23 15:15:39;;;;;;;2.20;0.53;;;15.90;99.90;;;;;;4919412;29;20234;-78
2023/03/23 15:18:06;;;;;;;3.47;0.60;;;15.80;99.90;;;;;;4920395;29;20248;-83
2023/03/23 15:20:48;;;;;;;3.63;0.70;;;15.70;99.90;;;;;;4919256;29;20225;-75
2023/03/23 15:23:18;;;;;;;3.57;0.70;;;15.80;99.90;;;;;;4918696;29;20212;-81
2023/03/23 15:25:50;;;;;;;3.07;0.70;;;15.90;99.90;;;;;;4918194;29;20244;-79
2023/03/23 15:28:18;;;;;;;4.03;0.80;;;16.00;99.90;;;;;;4918484;29;20205;-74
2023/03/23 15:30:50;;;;;;;1.67;0.60;;;15.90;99.90;;;;;;4918319;29;20218;-74
2023/03/23 15:33:19;;;;;;;5.30;0.80;;;15.90;99.90;;;;;;4918440;29;20209;-75
2023/03/23 15:35:49;;;;;;;3.47;0.90;;;15.90;99.90;;;;;;4918185;29;20245;-77
2023/03/23 15:38:22;;;;;;;3.87;0.80;;;16.00;99.90;;;;;;4918123;29;20264;-78
2023/03/23 15:40:51;;;;;;;2.07;0.90;;;16.10;99.90;;;;;;4918151;29;20209;-78
2023/03/23 15:43:19;;;;;;;2.17;0.97;;;16.10;99.90;;;;;;4918012;29;20216;-76
2023/03/23 15:45:55;;;;;;;3.57;1.00;;;16.00;99.90;;;;;;4918353;29;20238;-77
2023/03/23 15:48:23;;;;;;;3.17;0.70;;;16.00;99.90;;;;;;4919968;29;20209;-79
2023/03/23 15:50:53;;;;;;;5.43;1.33;;;15.90;99.90;;;;;;4927163;29;20219;-74
2023/03/23 15:53:27;;;;;;;1.97;0.70;;;16.00;99.90;;;;;;4936249;29;20251;-74
2023/03/23 15:55:54;;;;;;;5.13;0.70;;;15.80;99.90;;;;;;4948288;29;20241;-80
2023/03/23 15:58:21;;;;;;;3.23;0.77;;;15.70;99.90;;;;;;4936316;29;20219;-78
2023/03/23 16:00:50;;;;;;;6.13;1.00;;;15.60;99.90;;;;;;4936537;29;20664;-76
2023/03/23 16:03:20;;;;;;;5.47;0.97;;;15.50;99.90;;;;;;4936568;29;20211;-75
2023/03/23 16:05:47;;;;;;;3.10;1.33;;;15.40;99.90;;;;;;4936346;29;20232;-74
2023/03/23 16:08:15;;;;;;;5.67;0.90;;;15.40;99.90;;;;;;4942416;29;20208;-77
2023/03/23 16:10:43;;;;;;;4.07;1.10;;;15.40;99.90;;;;;;4943022;28;20212;-78
2023/03/23 16:13:10;;;;;;;3.53;1.40;;;15.40;99.90;;;;;;4937149;29;20216;-75
2023/03/23 16:15:37;;;;;;;2.70;0.90;;;15.40;99.90;;;;;;4938283;29;20256;-79
2023/03/23 16:18:04;;;;;;;3.47;0.90;;;15.40;99.90;;;;;;4936494;29;20320;-74
2023/03/23 16:20:32;;;;;;;2.53;0.80;;;15.40;99.90;;;;;;4935949;29;20213;-75
2023/03/23 16:22:59;;;;;;;2.00;0.90;;;15.30;99.90;;;;;;4936719;29;20213;-74
2023/03/23 16:25:27;;;;;;;6.87;1.30;;;15.20;99.90;;;;;;4935924;29;20252;-75
2023/03/23 16:27:55;;;;;;;4.07;0.80;;;15.20;99.90;;;;;;4936182;29;20231;-76
2023/03/23 16:30:25;;;;;;;2.57;0.80;;;15.20;99.90;;;;;;4935712;29;20223;-75
2023/03/23 16:32:52;;;;;;;4.33;0.80;;;15.40;99.90;;;;;;4935990;29;20276;-75
2023/03/23 16:35:20;;;;;;;3.17;0.70;;;15.50;99.90;;;;;;4935676;29;20712;-76
2023/03/23 16:37:50;;;;;;;2.30;1.00;;;15.50;99.90;;;;;;4935825;29;20229;-74
2023/03/23 16:40:19;;;;;;;1.77;0.60;;;15.50;99.90;;;;;;4935450;29;20216;-73
2023/03/23 16:42:46;;;;;;;3.63;0.63;;;15.50;99.90;;;;;;4935830;29;20217;-74
2023/03/23 16:45:15;;;;;;;1.37;0.60;;;15.50;99.90;;;;;;4945301;29;20223;-77
2023/03/23 16:47:42;;;;;;;6.60;0.90;;;15.40;99.90;;;;;;4947122;28;20653;-74
2023/03/23 16:50:11;;;;;;;2.87;0.60;;;15.40;99.90;;;;;;4935644;29;20204;-74
2023/03/23 16:52:39;;;;;;;0.93;0.57;;;15.30;99.90;;;;;;4935450;29;20213;-76
2023/03/23 16:55:07;;;;;;;1.80;0.70;;;15.20;99.90;;;;;;4935416;29;20700;-74
2023/03/23 16:57:36;;;;;;;1.57;0.70;;;15.20;99.90;;;;;;4934601;29;20296;-74
2023/03/23 17:00:05;;;;;;;3.40;1.20;;;15.10;99.90;;;;;;4935354;29;20209;-73
2023/03/23 17:02:33;;;;;;;3.57;1.13;;;15.00;99.90;;;;;;4935351;29;20215;-74
2023/03/23 17:05:00;;;;;;;2.10;0.70;;;15.00;99.90;;;;;;4935291;29;20229;-74
2023/03/23 17:07:28;;;;;;;3.47;0.60;;;15.00;99.90;;;;;;4935818;29;20719;-79
2023/03/23 17:09:54;;;;;;;0.77;0.40;;;15.00;99.90;;;;;;4935966;28;20211;-78
2023/03/23 17:12:21;;;;;;;3.37;0.90;;;15.00;99.90;;;;;;4935752;29;20221;-73
2023/03/23 17:14:48;;;;;;;2.23;0.60;;;15.00;99.90;;;;;;4935086;29;20699;-74
2023/03/23 17:17:15;;;;;;;3.27;0.70;;;15.10;99.90;;;;;;4935110;29;20704;-75
2023/03/23 17:19:43;;;;;;;3.80;1.13;;;15.10;99.90;;;;;;4935155;29;20204;-75
2023/03/23 17:22:10;;;;;;;2.53;0.80;;;15.10;99.90;;;;;;4935171;29;20660;-73
2023/03/23 17:24:37;;;;;;;5.73;0.90;;;15.10;99.90;;;;;;4935432;29;20567;-73
2023/03/23 17:27:04;;;;;;;8.97;0.80;;;15.00;99.90;;;;;;4935305;29;20240;-74
2023/03/23 17:29:30;;;;;;;5.33;1.00;;;15.00;99.90;;;;;;4935291;29;20219;-74
2023/03/23 17:31:57;;;;;;;8.40;1.10;;;15.00;99.90;;;;;;4935594;29;20212;-73
2023/03/23 17:34:24;;;;;;;3.10;0.90;;;15.10;99.90;;;;;;4935296;29;20213;-74
2023/03/23 17:36:52;;;;;;;4.43;0.87;;;15.10;99.90;;;;;;4935412;29;20242;-74
2023/03/23 17:39:19;;;;;;;3.27;0.80;;;15.00;99.90;;;;;;4928734;29;20214;-74
2023/03/23 17:41:46;;;;;;;1.93;0.73;;;15.10;99.90;;;;;;4927239;29;20206;-75
2023/03/23 17:44:13;;;;;;;3.20;1.03;;;15.10;99.90;;;;;;4928320;29;20224;-74
2023/03/23 17:46:40;;;;;;;2.10;0.80;;;15.00;99.90;;;;;;4926279;28;20228;-75
2023/03/23 17:49:07;;;;;;;1.60;0.87;;;15.00;99.90;;;;;;4928611;29;20231;-74
2023/03/23 17:51:33;;;;;;;3.40;1.27;;;14.90;99.90;;;;;;4929803;29;20209;-73
2023/03/23 17:54:02;;;;;;;3.33;1.30;;;14.90;99.90;;;;;;4924868;29;20208;-80
2023/03/23 17:56:28;;;;;;;8.50;1.27;;;14.90;99.90;;;;;;4935066;29;20255;-76
2023/03/23 17:58:55;;;;;;;2.90;0.80;;;14.90;99.90;;;;;;4919683;29;20236;-81
2023/03/23 18:01:22;;;;;;;3.90;1.10;;;14.90;99.90;;;;;;4933519;29;20205;-77
2023/03/23 18:03:49;;;;;;;6.23;0.90;;;14.90;99.90;;;;;;4922115;29;20300;-76
2023/03/23 18:06:15;;;;;;;5.33;0.80;;;14.90;99.90;;;;;;4932744;29;20233;-75
2023/03/23 18:08:42;;;;;;;3.60;1.00;;;15.00;99.90;;;;;;4923114;29;20209;-75
2023/03/23 18:11:11;;;;;;;4.90;0.63;;;14.90;99.90;;;;;;4937954;29;20213;-81
2023/03/23 18:13:38;;;;;;;1.60;0.60;;;14.90;99.90;;;;;;4938533;29;20202;-82
2023/03/23 18:16:06;;;;;;;3.00;0.80;;;14.90;99.90;;;;;;4938159;29;20247;-84
2023/03/23 18:18:33;;;;;;;3.73;0.93;;;14.90;99.90;;;;;;4938282;29;20237;-82
2023/03/23 18:21:02;;;;;;;5.30;1.10;;;14.90;99.90;;;;;;4938193;29;20208;-89
2023/03/23 18:23:30;;;;;;;3.90;1.07;;;14.90;99.90;;;;;;4938868;29;20205;-88
2023/03/23 18:26:03;;;;;;;2.60;0.70;;;14.90;99.90;;;;;;4938942;29;20225;-75
2023/03/23 18:28:31;;;;;;;3.67;1.13;;;14.90;99.90;;;;;;4939066;29;20236;-74
2023/03/23 18:31:03;;;;;;;3.70;0.97;;;14.90;99.90;;;;;;4937975;29;20231;-74
2023/03/23 18:33:29;;;;;;;2.90;1.20;;;14.90;99.90;;;;;;4937988;29;20219;-75
2023/03/23 18:35:57;;;;;;;4.93;1.53;;;14.90;99.90;;;;;;4937395;29;20229;-75
2023/03/23 18:38:24;;;;;;;1.93;0.70;;;14.90;99.90;;;;;;4937579;29;20668;-74
2023/03/23 18:40:51;;;;;;;1.87;1.27;;;14.90;99.90;;;;;;4937154;29;20215;-75
2023/03/23 18:43:18;;;;;;;2.77;0.90;;;14.80;99.90;;;;;;4937495;29;20219;-74
2023/03/23 18:45:50;;;;;;;3.27;0.80;;;14.80;99.90;;;;;;4937194;29;20770;-74
2023/03/23 18:48:17;;;;;;;4.57;0.90;;;14.70;99.90;;;;;;4937401;29;20231;-74
2023/03/23 18:50:47;;;;;;;4.03;1.17;;;14.60;99.90;;;;;;4937090;29;20232;-86
2023/03/23 18:53:14;;;;;;;4.97;1.40;;;14.40;99.90;;;;;;4938296;29;20245;-73
2023/03/23 18:55:41;;;;;;;7.57;1.00;;;14.30;99.90;;;;;;4927015;29;20699;-75
2023/03/23 18:58:08;;;;;;;1.83;1.03;;;14.20;99.90;;;;;;4936938;29;20717;-74
2023/03/23 19:00:36;;;;;;;3.07;1.00;;;14.20;99.90;;;;;;4937345;29;20205;-75
2023/03/23 19:03:05;;;;;;;7.07;1.10;;;14.10;99.90;;;;;;4937113;29;20205;-75
2023/03/23 19:05:33;;;;;;;5.83;1.13;;;13.90;99.90;;;;;;4938098;29;20236;-75
2023/03/23 19:08:00;;;;;;;7.00;1.00;;;13.90;99.90;;;;;;4937450;29;20580;-75
2023/03/23 19:10:27;;;;;;;8.37;1.60;;;13.80;99.90;;;;;;4938051;29;20216;-77
2023/03/23 19:12:54;;;;;;;3.83;0.90;;;13.70;99.90;;;;;;4937785;29;20573;-74
2023/03/23 19:15:23;;;;;;;2.57;0.90;;;13.80;99.90;;;;;;4936995;28;20225;-75
2023/03/23 19:17:54;;;;;;;6.37;1.60;;;13.70;99.90;;;;;;4929005;29;20244;-77
2023/03/23 19:20:23;;;;;;;4.00;1.10;;;13.70;99.90;;;;;;4932665;29;20240;-74
2023/03/23 19:22:51;;;;;;;2.07;1.00;;;13.70;99.90;;;;;;4936457;29;20217;-78
2023/03/23 19:25:18;;;;;;;2.20;0.90;;;13.70;99.90;;;;;;4932222;29;20792;-74
2023/03/23 19:27:46;;;;;;;3.47;0.93;;;13.70;99.90;;;;;;4927384;29;20204;-75
2023/03/23 19:30:13;;;;;;;3.43;1.20;;;13.70;99.90;;;;;;4931760;29;20236;-74
2023/03/23 19:32:40;;;;;;;4.43;1.03;;;13.70;99.90;;;;;;4927230;29;20209;-74
2023/03/23 19:35:08;;;;;;;2.40;0.90;;;13.70;99.90;;;;;;4930540;29;20232;-75
2023/03/23 19:37:36;;;;;;;2.60;0.90;;;13.70;99.90;;;;;;4931620;29;20244;-74
2023/03/23 19:40:05;;;;;;;2.57;1.03;;;13.70;99.90;;;;;;4930652;29;20209;-74
2023/03/23 19:42:32;;;;;;;1.80;0.90;;;13.70;99.90;;;;;;4930407;29;20690;-74
2023/03/23 19:45:00;;;;;;;2.83;0.80;;;13.70;99.90;;;;;;4930236;29;20228;-74
2023/03/23 19:47:27;;;;;;;1.93;0.90;;;13.70;99.90;;;;;;4928823;29;20292;-74
2023/03/23 19:49:55;;;;;;;3.07;1.00;;;13.70;99.90;;;;;;4924425;29;20210;-74
2023/03/23 19:52:22;;;;;;;2.43;0.90;;;13.70;99.90;;;;;;4934315;29;20201;-76
2023/03/23 19:54:50;;;;;;;2.43;0.93;;;13.70;99.90;;;;;;4929342;29;20716;-75
2023/03/23 19:57:17;;;;;;;1.67;0.60;;;13.70;99.90;;;;;;4921795;29;20592;-74
2023/03/23 19:59:44;;;;;;;1.73;0.90;;;13.70;99.90;;;;;;4926230;29;20293;-74
2023/03/23 20:02:11;;;;;;;3.63;1.07;;;13.70;99.90;;;;;;4922036;29;20260;-75
2023/03/23 20:04:38;;;;;;;2.97;0.60;;;13.70;99.90;;;;;;4932873;29;20676;-74
2023/03/23 20:07:05;;;;;;;2.53;0.70;;;13.60;99.90;;;;;;4933580;29;20208;-74
2023/03/23 20:09:32;;;;;;;4.50;0.70;;;13.60;99.90;;;;;;4931298;29;20213;-73
2023/03/23 20:12:00;;;;;;;3.13;0.77;;;13.70;99.90;;;;;;4930929;29;20209;-73
2023/03/23 20:14:27;;;;;;;1.37;0.70;;;13.70;99.90;;;;;;4930783;29;20208;-73
2023/03/23 20:16:54;;;;;;;3.70;0.90;;;13.60;99.90;;;;;;4930762;29;20228;-73
2023/03/23 20:19:21;;;;;;;4.10;0.63;;;13.60;99.90;;;;;;4931960;29;20232;-77
2023/03/23 20:21:48;;;;;;;0.90;0.63;;;13.60;99.90;;;;;;4932076;29;20201;-74
2023/03/23 20:24:15;;;;;;;1.67;0.73;;;13.60;99.90;;;;;;4935262;29;20295;-74
2023/03/23 20:26:43;;;;;;;3.00;0.70;;;13.50;99.90;;;;;;4931991;29;20236;-73
2023/03/23 20:29:11;;;;;;;3.93;0.97;;;13.40;99.90;;;;;;4933601;29;20209;-74
2023/03/23 20:31:40;;;;;;;1.10;0.80;;;13.30;99.90;;;;;;4930661;29;20211;-73
2023/03/23 20:34:09;;;;;;;1.60;0.87;;;13.20;99.90;;;;;;4932950;29;20208;-73
2023/03/23 20:36:39;;;;;;;0.90;0.50;;;13.20;99.90;;;;;;4929362;29;20260;-75
2023/03/23 20:39:09;;;;;;;4.67;1.23;;;13.10;99.90;;;;;;4934714;29;20629;-73
2023/03/23 20:41:37;;;;;;;2.07;0.87;;;13.10;99.90;;;;;;4932274;29;20287;-73